Time;durP1;ratioP1;P1;durP2;ratioP2;P2;SDS_P1;SDS_P2;PMS_P1;PMS_P2;Temp;Humidity;BMP_temperature;BMP_pressure;BME280_temperature;BME280_humidity;BME280_pressure;Samples;Min_cycle;Max_cycle;Signal;HPM_P1;HPM_P2
2023/05/20 00:01:11;;;;;;;6.30;4.40;;;;;;;;;;107576;285;42151;-41
2023/05/20 00:03:45;;;;;;;6.20;4.50;;;;;;;;;;107583;286;38774;-41
2023/05/20 00:06:21;;;;;;;6.70;4.60;;;;;;;;;;107676;286;39707;-41
2023/05/20 00:08:58;;;;;;;6.20;4.20;;;;;;;;;;107557;283;44026;-42
2023/05/20 00:11:37;;;;;;;6.40;4.60;;;;;;;;;;107620;283;43102;-41
2023/05/20 00:14:11;;;;;;;5.30;4.00;;;;;;;;;;107607;283;38578;-41
2023/05/20 00:16:47;;;;;;;6.00;4.40;;;;;;;;;;107628;283;39640;-41
2023/05/20 00:19:21;;;;;;;5.60;4.10;;;;;;;;;;107646;285;48630;-41
2023/05/20 00:21:56;;;;;;;6.40;4.50;;;;;;;;;;107606;286;42105;-41
2023/05/20 00:24:34;;;;;;;6.40;4.50;;;;;;;;;;107591;286;38877;-42
2023/05/20 00:27:08;;;;;;;6.20;4.30;;;;;;;;;;107599;283;39618;-41
2023/05/20 00:29:42;;;;;;;5.30;4.10;;;;;;;;;;107675;283;48620;-41
2023/05/20 00:32:17;;;;;;;6.30;4.40;;;;;;;;;;107604;283;42155;-41
2023/05/20 00:35:01;;;;;;;6.20;4.40;;;;;;;;;;107605;283;38852;-42
2023/05/20 00:37:38;;;;;;;5.80;4.40;;;;;;;;;;107604;285;40775;-41
2023/05/20 00:40:14;;;;;;;6.70;4.60;;;;;;;;;;107621;283;48879;-42
2023/05/20 00:42:50;;;;;;;5.90;4.40;;;;;;;;;;107641;283;42539;-41
2023/05/20 00:45:23;;;;;;;5.90;4.40;;;;;;;;;;107576;281;38582;-41
2023/05/20 00:48:00;;;;;;;6.10;4.40;;;;;;;;;;107587;283;39675;-41
2023/05/20 00:50:37;;;;;;;5.70;4.30;;;;;;;;;;107604;283;49334;-41
2023/05/20 00:53:13;;;;;;;6.40;4.40;;;;;;;;;;107605;287;41890;-41
2023/05/20 00:55:47;;;;;;;6.40;4.30;;;;;;;;;;107595;283;38570;-41
2023/05/20 00:58:22;;;;;;;5.70;4.30;;;;;;;;;;107554;285;39416;-41
2023/05/20 01:00:57;;;;;;;6.60;4.40;;;;;;;;;;107465;286;175688;-42
2023/05/20 01:03:32;;;;;;;6.00;4.40;;;;;;;;;;107554;282;41907;-41
2023/05/20 01:06:09;;;;;;;5.90;4.10;;;;;;;;;;107615;282;39112;-42
2023/05/20 01:08:43;;;;;;;6.60;4.40;;;;;;;;;;107581;285;39688;-41
2023/05/20 01:11:22;;;;;;;5.70;4.30;;;;;;;;;;107577;283;42795;-42
2023/05/20 01:14:01;;;;;;;5.90;4.10;;;;;;;;;;107591;286;42202;-41
2023/05/20 01:16:37;;;;;;;6.00;4.40;;;;;;;;;;107269;283;450116;-41
2023/05/20 01:19:27;;;;;;;5.90;4.20;;;;;;;;;;107599;285;41156;-42
2023/05/20 01:22:05;;;;;;;5.60;4.40;;;;;;;;;;107641;285;42960;-42
2023/05/20 01:24:40;;;;;;;5.80;4.30;;;;;;;;;;107584;282;42286;-42
2023/05/20 01:27:14;;;;;;;5.90;4.30;;;;;;;;;;107591;283;38535;-42
2023/05/20 01:29:49;;;;;;;5.70;4.30;;;;;;;;;;106922;285;894779;-43
2023/05/20 01:32:26;;;;;;;5.90;4.00;;;;;;;;;;107616;285;42831;-42
2023/05/20 01:35:03;;;;;;;5.80;4.10;;;;;;;;;;107608;285;42052;-43
2023/05/20 01:37:40;;;;;;;5.90;4.10;;;;;;;;;;107602;278;39815;-42
2023/05/20 01:40:18;;;;;;;5.90;4.20;;;;;;;;;;107549;285;39858;-42
2023/05/20 01:42:55;;;;;;;5.60;4.00;;;;;;;;;;107590;286;42703;-42
2023/05/20 01:45:33;;;;;;;6.40;4.40;;;;;;;;;;107626;285;42144;-42
2023/05/20 01:48:08;;;;;;;5.80;4.10;;;;;;;;;;107605;285;38768;-43
2023/05/20 01:50:43;;;;;;;6.20;4.30;;;;;;;;;;107566;285;39468;-42
2023/05/20 01:53:17;;;;;;;5.60;4.30;;;;;;;;;;107577;283;42876;-42
2023/05/20 01:55:50;;;;;;;5.70;4.10;;;;;;;;;;107582;285;42137;-42
2023/05/20 01:58:25;;;;;;;6.00;4.40;;;;;;;;;;107610;283;39838;-43
2023/05/20 02:01:02;;;;;;;5.70;3.70;;;;;;;;;;107567;283;39511;-42
2023/05/20 02:03:36;;;;;;;5.60;3.80;;;;;;;;;;107589;285;42649;-42
2023/05/20 02:06:11;;;;;;;5.40;4.10;;;;;;;;;;107602;283;42078;-42
2023/05/20 02:08:46;;;;;;;6.00;3.90;;;;;;;;;;107592;285;39018;-42
2023/05/20 02:11:20;;;;;;;5.70;3.80;;;;;;;;;;107528;278;39791;-42
2023/05/20 02:13:55;;;;;;;5.90;4.10;;;;;;;;;;107612;278;42927;-42
2023/05/20 02:16:31;;;;;;;6.00;4.00;;;;;;;;;;107609;285;42186;-42
2023/05/20 02:19:05;;;;;;;5.20;3.50;;;;;;;;;;107598;285;38540;-42
2023/05/20 02:21:41;;;;;;;5.40;3.70;;;;;;;;;;107441;278;193128;-43
2023/05/20 02:24:16;;;;;;;6.10;3.80;;;;;;;;;;107591;287;42699;-42
2023/05/20 02:26:52;;;;;;;5.10;3.60;;;;;;;;;;107588;283;42088;-44
2023/05/20 02:29:26;;;;;;;5.80;3.70;;;;;;;;;;107612;283;38787;-42
2023/05/20 02:32:03;;;;;;;5.40;3.80;;;;;;;;;;107554;283;39657;-43
2023/05/20 02:34:37;;;;;;;6.10;3.80;;;;;;;;;;107620;285;42911;-42
2023/05/20 02:37:13;;;;;;;5.20;3.70;;;;;;;;;;107610;285;43313;-43
2023/05/20 02:39:47;;;;;;;5.70;3.60;;;;;;;;;;107635;283;38817;-42
2023/05/20 02:42:20;;;;;;;5.40;3.80;;;;;;;;;;107561;283;40908;-42
2023/05/20 02:44:57;;;;;;;5.50;3.50;;;;;;;;;;107650;283;42890;-42
2023/05/20 02:47:32;;;;;;;6.00;3.90;;;;;;;;;;107595;283;43160;-42
2023/05/20 02:50:07;;;;;;;5.60;3.50;;;;;;;;;;107626;283;38913;-42
2023/05/20 02:52:42;;;;;;;5.00;3.40;;;;;;;;;;107596;285;39857;-43
2023/05/20 02:55:17;;;;;;;5.90;3.40;;;;;;;;;;107633;286;43903;-42
2023/05/20 02:57:52;;;;;;;5.70;3.50;;;;;;;;;;107629;286;43197;-41
2023/05/20 03:00:29;;;;;;;5.30;3.60;;;;;;;;;;107589;286;38562;-43
2023/05/20 03:03:04;;;;;;;5.10;3.70;;;;;;;;;;107566;285;40720;-41
2023/05/20 03:05:41;;;;;;;5.10;3.40;;;;;;;;;;107602;282;42696;-42
2023/05/20 03:08:18;;;;;;;5.20;3.60;;;;;;;;;;107596;285;43267;-42
2023/05/20 03:10:53;;;;;;;5.30;3.50;;;;;;;;;;107663;286;38630;-42
2023/05/20 03:13:27;;;;;;;5.20;3.60;;;;;;;;;;107609;283;45242;-42
2023/05/20 03:16:01;;;;;;;5.00;3.60;;;;;;;;;;107624;286;42657;-41
2023/05/20 03:18:35;;;;;;;5.00;3.20;;;;;;;;;;107622;283;41911;-42
2023/05/20 03:21:09;;;;;;;4.80;3.40;;;;;;;;;;107613;286;38530;-42
2023/05/20 03:23:42;;;;;;;5.30;3.20;;;;;;;;;;107722;286;45636;-42
2023/05/20 03:26:18;;;;;;;4.70;3.10;;;;;;;;;;107626;283;42927;-44
2023/05/20 03:28:55;;;;;;;4.90;3.10;;;;;;;;;;107462;280;42107;-42
2023/05/20 03:31:28;;;;;;;5.00;3.40;;;;;;;;;;107617;283;39213;-42
2023/05/20 03:34:02;;;;;;;4.90;3.30;;;;;;;;;;107548;278;45546;-42
2023/05/20 03:36:37;;;;;;;5.00;3.30;;;;;;;;;;107569;283;42806;-42
2023/05/20 03:39:13;;;;;;;5.30;3.30;;;;;;;;;;107620;286;42271;-42
2023/05/20 03:41:47;;;;;;;4.90;3.40;;;;;;;;;;107616;283;38530;-42
2023/05/20 03:44:20;;;;;;;4.80;3.30;;;;;;;;;;107555;286;46547;-42
2023/05/20 03:46:57;;;;;;;5.40;3.40;;;;;;;;;;107611;286;42855;-42
2023/05/20 03:49:31;;;;;;;5.00;3.20;;;;;;;;;;107631;286;41915;-43
2023/05/20 03:52:05;;;;;;;4.80;3.10;;;;;;;;;;107650;286;38799;-42
2023/05/20 03:54:40;;;;;;;4.60;3.10;;;;;;;;;;107706;285;45221;-45
2023/05/20 03:57:14;;;;;;;4.90;3.10;;;;;;;;;;107596;286;42830;-42
2023/05/20 03:59:50;;;;;;;4.80;3.20;;;;;;;;;;107599;283;41927;-42
2023/05/20 04:02:24;;;;;;;5.40;3.20;;;;;;;;;;107512;283;175644;-42
2023/05/20 04:05:00;;;;;;;5.20;3.20;;;;;;;;;;107560;286;45716;-42
2023/05/20 04:07:34;;;;;;;4.60;3.00;;;;;;;;;;107611;283;42738;-44
2023/05/20 04:10:12;;;;;;;5.10;2.90;;;;;;;;;;107496;283;195477;-44
2023/05/20 04:12:45;;;;;;;4.70;3.20;;;;;;;;;;107602;285;38819;-42
2023/05/20 04:15:22;;;;;;;5.00;3.10;;;;;;;;;;107620;286;39708;-43
2023/05/20 04:18:00;;;;;;;5.10;3.50;;;;;;;;;;107563;286;44017;-42
2023/05/20 04:20:34;;;;;;;5.20;3.30;;;;;;;;;;107624;283;42388;-42
2023/05/20 04:23:07;;;;;;;5.00;3.10;;;;;;;;;;107590;283;39802;-42
2023/05/20 04:25:41;;;;;;;5.30;3.00;;;;;;;;;;107630;283;44996;-43
2023/05/20 04:28:16;;;;;;;4.90;3.00;;;;;;;;;;107639;285;42683;-41
2023/05/20 04:30:53;;;;;;;5.50;3.30;;;;;;;;;;107604;282;42117;-43
2023/05/20 04:33:27;;;;;;;5.50;3.10;;;;;;;;;;107596;285;39829;-42
2023/05/20 04:36:04;;;;;;;4.50;3.00;;;;;;;;;;107578;286;45687;-42
2023/05/20 04:38:38;;;;;;;4.70;3.20;;;;;;;;;;107594;282;42666;-42
2023/05/20 04:41:15;;;;;;;5.00;3.00;;;;;;;;;;107622;285;42135;-42
2023/05/20 04:43:50;;;;;;;5.60;3.20;;;;;;;;;;107585;283;38509;-42
2023/05/20 04:46:24;;;;;;;5.40;3.20;;;;;;;;;;107603;283;39533;-42
2023/05/20 04:48:58;;;;;;;4.90;3.00;;;;;;;;;;107632;286;42842;-43
2023/05/20 04:51:33;;;;;;;5.00;3.00;;;;;;;;;;107619;285;43216;-42
2023/05/20 04:54:06;;;;;;;5.90;3.10;;;;;;;;;;107593;285;38992;-42
2023/05/20 04:56:40;;;;;;;6.00;3.10;;;;;;;;;;107580;283;39485;-42
2023/05/20 04:59:13;;;;;;;6.40;3.30;;;;;;;;;;107589;283;42890;-42
2023/05/20 05:01:46;;;;;;;5.60;3.10;;;;;;;;;;107592;283;43318;-42
2023/05/20 05:04:21;;;;;;;5.40;3.10;;;;;;;;;;107572;283;40066;-42
2023/05/20 05:06:55;;;;;;;4.90;2.90;;;;;;;;;;107621;286;39506;-43
2023/05/20 05:09:32;;;;;;;5.10;3.10;;;;;;;;;;107517;283;175660;-43
2023/05/20 05:12:08;;;;;;;6.00;2.80;;;;;;;;;;107660;285;42090;-43
2023/05/20 05:14:43;;;;;;;6.30;3.10;;;;;;;;;;107584;278;38760;-42
2023/05/20 05:17:17;;;;;;;5.30;3.10;;;;;;;;;;107645;286;41071;-42
2023/05/20 05:19:51;;;;;;;5.20;3.20;;;;;;;;;;107510;283;196103;-42
2023/05/20 05:22:25;;;;;;;5.60;3.20;;;;;;;;;;107580;283;42168;-42
2023/05/20 05:25:01;;;;;;;5.20;3.00;;;;;;;;;;107539;286;38657;-42
2023/05/20 05:27:35;;;;;;;5.00;3.00;;;;;;;;;;107505;283;175659;-43
2023/05/20 05:30:11;;;;;;;5.50;3.30;;;;;;;;;;107604;286;44935;-42
2023/05/20 05:32:45;;;;;;;5.50;3.10;;;;;;;;;;107621;285;42127;-42
2023/05/20 05:35:19;;;;;;;5.00;3.10;;;;;;;;;;107460;283;175659;-42
2023/05/20 05:37:53;;;;;;;4.60;2.90;;;;;;;;;;107594;283;39860;-42
2023/05/20 05:40:26;;;;;;;4.90;3.20;;;;;;;;;;107588;278;42652;-42
2023/05/20 05:43:00;;;;;;;5.10;3.10;;;;;;;;;;107580;286;42167;-42
2023/05/20 05:45:33;;;;;;;4.90;2.90;;;;;;;;;;107594;285;38726;-42
2023/05/20 05:48:07;;;;;;;5.90;3.10;;;;;;;;;;107583;283;39738;-42
2023/05/20 05:50:42;;;;;;;5.20;2.90;;;;;;;;;;107578;281;42910;-43
2023/05/20 05:53:15;;;;;;;4.90;2.80;;;;;;;;;;107602;285;41862;-43
2023/05/20 05:55:50;;;;;;;4.80;2.90;;;;;;;;;;107568;283;38797;-43
2023/05/20 05:58:23;;;;;;;5.60;3.00;;;;;;;;;;107570;286;39869;-42
2023/05/20 06:00:56;;;;;;;5.10;3.00;;;;;;;;;;107597;283;42805;-41
2023/05/20 06:03:30;;;;;;;5.70;3.30;;;;;;;;;;107576;285;41922;-42
2023/05/20 06:06:04;;;;;;;4.60;2.70;;;;;;;;;;107561;283;38824;-43
2023/05/20 06:08:37;;;;;;;5.30;3.20;;;;;;;;;;107563;290;39864;-41
2023/05/20 06:11:11;;;;;;;5.30;3.20;;;;;;;;;;107572;283;44083;-42
2023/05/20 06:13:44;;;;;;;5.10;3.30;;;;;;;;;;107588;283;42684;-43
2023/05/20 06:16:18;;;;;;;5.30;3.00;;;;;;;;;;107556;286;38771;-42
2023/05/20 06:18:52;;;;;;;4.80;2.90;;;;;;;;;;107579;282;39744;-43
2023/05/20 06:21:25;;;;;;;5.50;3.10;;;;;;;;;;107574;282;44037;-43
2023/05/20 06:24:00;;;;;;;5.70;3.00;;;;;;;;;;107592;285;42173;-44
2023/05/20 06:26:33;;;;;;;4.50;2.90;;;;;;;;;;107567;285;38774;-42
2023/05/20 06:29:06;;;;;;;4.90;2.90;;;;;;;;;;107577;283;40556;-44
2023/05/20 06:31:39;;;;;;;5.00;3.00;;;;;;;;;;107625;283;42898;-44
2023/05/20 06:34:13;;;;;;;4.70;2.90;;;;;;;;;;107592;286;42168;-41
2023/05/20 06:36:46;;;;;;;4.50;2.80;;;;;;;;;;107557;283;38879;-41
2023/05/20 06:39:19;;;;;;;4.60;2.90;;;;;;;;;;107588;282;39739;-42
2023/05/20 06:41:52;;;;;;;4.80;2.90;;;;;;;;;;107494;283;175634;-43
2023/05/20 06:44:26;;;;;;;4.80;2.80;;;;;;;;;;107581;283;42284;-42
2023/05/20 06:46:59;;;;;;;4.90;3.00;;;;;;;;;;107539;286;38948;-43
2023/05/20 06:49:32;;;;;;;4.70;2.80;;;;;;;;;;107600;286;39900;-43
2023/05/20 06:52:07;;;;;;;4.90;3.10;;;;;;;;;;107575;286;42921;-44
2023/05/20 06:54:42;;;;;;;4.70;3.00;;;;;;;;;;107648;283;42369;-42
2023/05/20 06:57:16;;;;;;;5.30;2.90;;;;;;;;;;107580;285;38825;-42
2023/05/20 06:59:51;;;;;;;4.50;2.70;;;;;;;;;;107611;283;39774;-42
2023/05/20 07:02:26;;;;;;;4.70;3.00;;;;;;;;;;107581;283;42877;-42
2023/05/20 07:04:59;;;;;;;5.50;2.80;;;;;;;;;;107595;283;42811;-43
2023/05/20 07:07:33;;;;;;;5.00;2.90;;;;;;;;;;107589;286;38815;-42
2023/05/20 07:10:09;;;;;;;4.80;2.80;;;;;;;;;;107522;287;192970;-42
2023/05/20 07:12:44;;;;;;;4.70;2.70;;;;;;;;;;107626;286;43031;-43
2023/05/20 07:15:17;;;;;;;4.40;2.70;;;;;;;;;;107586;286;43139;-43
2023/05/20 07:17:51;;;;;;;5.00;2.90;;;;;;;;;;107605;283;38913;-42
2023/05/20 07:20:24;;;;;;;4.90;2.70;;;;;;;;;;107664;285;39718;-43
2023/05/20 07:22:58;;;;;;;5.50;2.80;;;;;;;;;;107659;286;44701;-42
2023/05/20 07:25:31;;;;;;;4.60;2.70;;;;;;;;;;107630;283;41884;-43
2023/05/20 07:28:06;;;;;;;4.70;2.80;;;;;;;;;;107503;286;192188;-42
2023/05/20 07:30:41;;;;;;;4.80;2.50;;;;;;;;;;107655;283;39909;-42
2023/05/20 07:33:15;;;;;;;4.80;2.80;;;;;;;;;;107650;283;42882;-42
2023/05/20 07:35:53;;;;;;;4.60;2.70;;;;;;;;;;107652;286;42163;-41
2023/05/20 07:38:27;;;;;;;4.60;2.90;;;;;;;;;;107628;285;38934;-42
2023/05/20 07:41:00;;;;;;;4.50;2.50;;;;;;;;;;107665;286;39493;-42
2023/05/20 07:43:36;;;;;;;4.20;2.50;;;;;;;;;;107645;286;42686;-42
2023/05/20 07:46:12;;;;;;;4.50;2.70;;;;;;;;;;107636;282;42056;-44
2023/05/20 07:48:47;;;;;;;5.50;2.90;;;;;;;;;;107580;285;38787;-43
2023/05/20 07:51:22;;;;;;;4.40;2.50;;;;;;;;;;107640;283;39514;-42
2023/05/20 07:54:01;;;;;;;4.40;2.50;;;;;;;;;;107659;283;43034;-44
2023/05/20 07:56:36;;;;;;;5.10;2.70;;;;;;;;;;107649;283;42153;-42
2023/05/20 07:59:10;;;;;;;4.50;2.50;;;;;;;;;;107611;286;38816;-41
2023/05/20 08:01:45;;;;;;;4.60;2.70;;;;;;;;;;107507;282;193203;-42
2023/05/20 08:04:20;;;;;;;4.40;2.60;;;;;;;;;;107679;286;42873;-42
2023/05/20 08:06:55;;;;;;;4.80;2.70;;;;;;;;;;107632;286;41912;-41
2023/05/20 08:09:34;;;;;;;4.60;2.60;;;;;;;;;;107603;283;38537;-42
2023/05/20 08:12:08;;;;;;;4.40;2.60;;;;;;;;;;107588;283;40094;-44
2023/05/20 08:14:42;;;;;;;4.10;2.40;;;;;;;;;;107618;283;42887;-43
2023/05/20 08:17:17;;;;;;;4.20;2.50;;;;;;;;;;107630;285;43324;-42
2023/05/20 08:19:51;;;;;;;4.50;2.50;;;;;;;;;;107475;286;175611;-43
2023/05/20 08:22:26;;;;;;;4.20;2.40;;;;;;;;;;107609;278;40890;-43
2023/05/20 08:25:01;;;;;;;4.30;2.50;;;;;;;;;;107608;286;43013;-42
2023/05/20 08:27:35;;;;;;;5.00;2.50;;;;;;;;;;107625;283;43386;-43
2023/05/20 08:30:12;;;;;;;4.40;2.60;;;;;;;;;;107533;286;40248;-42
2023/05/20 08:32:47;;;;;;;4.30;2.50;;;;;;;;;;107611;283;40875;-44
2023/05/20 08:35:21;;;;;;;4.20;2.50;;;;;;;;;;107613;289;42944;-43
2023/05/20 08:37:57;;;;;;;4.20;2.50;;;;;;;;;;107620;283;42166;-42
2023/05/20 08:40:31;;;;;;;3.90;2.40;;;;;;;;;;107555;283;38834;-43
2023/05/20 08:43:05;;;;;;;4.40;2.30;;;;;;;;;;107454;285;39862;-45
2023/05/20 08:45:41;;;;;;;4.00;2.50;;;;;;;;;;107592;283;43060;-42
2023/05/20 08:48:16;;;;;;;4.30;2.70;;;;;;;;;;107570;285;41902;-42
2023/05/20 08:50:53;;;;;;;4.10;2.30;;;;;;;;;;107680;283;44810;-42
2023/05/20 08:53:27;;;;;;;4.10;2.30;;;;;;;;;;107639;285;39441;-42
2023/05/20 08:56:04;;;;;;;4.50;2.30;;;;;;;;;;107582;285;42905;-44
2023/05/20 08:58:39;;;;;;;4.10;2.50;;;;;;;;;;107594;283;42164;-45
2023/05/20 09:01:15;;;;;;;4.20;2.40;;;;;;;;;;107624;286;40110;-44
2023/05/20 09:03:53;;;;;;;4.20;2.50;;;;;;;;;;107552;286;39730;-44
2023/05/20 09:06:27;;;;;;;4.10;2.30;;;;;;;;;;107643;283;43027;-44
2023/05/20 09:09:03;;;;;;;4.70;2.50;;;;;;;;;;107552;285;42401;-43
2023/05/20 09:11:42;;;;;;;4.40;2.30;;;;;;;;;;107598;283;38825;-43
2023/05/20 09:14:17;;;;;;;4.70;2.70;;;;;;;;;;107591;283;39725;-43
2023/05/20 09:16:54;;;;;;;4.60;2.60;;;;;;;;;;107159;286;519264;-44
2023/05/20 09:19:28;;;;;;;4.40;2.70;;;;;;;;;;107580;278;42010;-43
2023/05/20 09:22:06;;;;;;;4.70;2.80;;;;;;;;;;107595;285;38801;-45
2023/05/20 09:24:42;;;;;;;4.50;2.70;;;;;;;;;;107614;282;39706;-43
2023/05/20 09:27:18;;;;;;;4.30;2.90;;;;;;;;;;107641;283;42907;-46
2023/05/20 09:29:58;;;;;;;5.20;2.90;;;;;;;;;;107607;283;43464;-44
2023/05/20 09:32:35;;;;;;;6.00;3.10;;;;;;;;;;107538;283;191912;-47
2023/05/20 09:35:10;;;;;;;5.10;3.00;;;;;;;;;;107622;283;40883;-43
2023/05/20 09:37:47;;;;;;;5.40;3.40;;;;;;;;;;107624;283;44407;-45
2023/05/20 09:40:23;;;;;;;5.00;3.40;;;;;;;;;;107582;285;43243;-43
2023/05/20 09:43:00;;;;;;;5.20;3.30;;;;;;;;;;107605;283;38810;-44
2023/05/20 09:45:35;;;;;;;6.40;3.20;;;;;;;;;;107597;283;41126;-46
2023/05/20 09:48:11;;;;;;;5.80;3.30;;;;;;;;;;107590;278;42852;-47
2023/05/20 09:50:47;;;;;;;5.00;3.30;;;;;;;;;;107545;285;42373;-43
2023/05/20 09:53:23;;;;;;;5.60;3.50;;;;;;;;;;107584;286;38820;-44
2023/05/20 09:55:57;;;;;;;5.10;3.70;;;;;;;;;;107683;285;39732;-44
2023/05/20 09:58:32;;;;;;;5.70;3.70;;;;;;;;;;107602;283;44361;-44
2023/05/20 10:01:07;;;;;;;5.60;4.10;;;;;;;;;;107611;285;43256;-44
2023/05/20 10:03:41;;;;;;;5.10;4.20;;;;;;;;;;107630;283;38850;-43
2023/05/20 10:06:47;;;;;;;6.10;4.20;;;;;;;;;;107584;285;41082;-44
2023/05/20 10:09:50;;;;;;;5.70;4.60;;;;;;;;;;107604;285;43010;-44
2023/05/20 10:12:36;;;;;;;7.10;5.00;;;;;;;;;;107569;283;42356;-44
2023/05/20 10:15:20;;;;;;;7.00;5.10;;;;;;;;;;107602;285;38771;-44
2023/05/20 10:18:04;;;;;;;7.60;5.30;;;;;;;;;;107641;285;39900;-45
2023/05/20 10:20:50;;;;;;;6.70;5.10;;;;;;;;;;107599;282;44289;-46
2023/05/20 10:23:28;;;;;;;6.80;5.50;;;;;;;;;;107598;286;42162;-44
2023/05/20 10:26:08;;;;;;;7.10;5.70;;;;;;;;;;107636;283;39832;-44
2023/05/20 10:28:44;;;;;;;6.80;5.40;;;;;;;;;;107570;287;39727;-44
2023/05/20 10:31:24;;;;;;;7.10;5.70;;;;;;;;;;107590;282;42974;-44
2023/05/20 10:34:00;;;;;;;6.80;5.80;;;;;;;;;;107597;278;42151;-46
2023/05/20 10:36:36;;;;;;;7.40;6.20;;;;;;;;;;107594;283;39223;-45
2023/05/20 10:39:17;;;;;;;7.50;6.10;;;;;;;;;;107624;283;40840;-43
2023/05/20 10:41:53;;;;;;;6.50;5.70;;;;;;;;;;107587;286;42886;-45
2023/05/20 10:44:28;;;;;;;7.40;5.90;;;;;;;;;;107593;283;43304;-44
2023/05/20 10:47:08;;;;;;;7.20;5.90;;;;;;;;;;107483;286;192020;-43
2023/05/20 10:50:03;;;;;;;8.00;6.30;;;;;;;;;;107629;286;39711;-43
2023/05/20 10:52:39;;;;;;;7.00;5.70;;;;;;;;;;107573;286;42877;-44
2023/05/20 10:55:25;;;;;;;6.90;6.20;;;;;;;;;;107606;283;42490;-43
2023/05/20 10:57:59;;;;;;;6.70;6.00;;;;;;;;;;107590;286;40072;-45
2023/05/20 11:00:34;;;;;;;7.00;6.20;;;;;;;;;;107625;283;39947;-44
2023/05/20 11:03:11;;;;;;;6.90;6.00;;;;;;;;;;107588;285;42638;-46
2023/05/20 11:05:48;;;;;;;7.40;6.00;;;;;;;;;;107576;286;44363;-44
2023/05/20 11:08:27;;;;;;;7.00;6.20;;;;;;;;;;107645;286;39612;-46
2023/05/20 11:11:05;;;;;;;7.30;6.30;;;;;;;;;;107641;283;39760;-43
2023/05/20 11:13:39;;;;;;;7.20;6.30;;;;;;;;;;107586;286;50799;-44
2023/05/20 11:16:12;;;;;;;8.50;6.20;;;;;;;;;;107649;283;42160;-44
2023/05/20 11:18:46;;;;;;;7.20;6.20;;;;;;;;;;107691;285;38820;-45
2023/05/20 11:21:21;;;;;;;6.60;5.70;;;;;;;;;;107619;286;40895;-44
2023/05/20 11:23:55;;;;;;;7.30;6.00;;;;;;;;;;107588;286;49715;-43
2023/05/20 11:26:30;;;;;;;6.90;6.00;;;;;;;;;;107664;286;42163;-44
2023/05/20 11:29:04;;;;;;;6.40;5.70;;;;;;;;;;107621;286;39925;-47
2023/05/20 11:31:40;;;;;;;6.70;5.70;;;;;;;;;;107617;285;39723;-44
2023/05/20 11:34:14;;;;;;;7.00;5.80;;;;;;;;;;107712;286;48504;-44
2023/05/20 11:36:49;;;;;;;7.10;5.80;;;;;;;;;;107622;286;42196;-44
2023/05/20 11:39:25;;;;;;;7.80;6.10;;;;;;;;;;107702;285;38789;-40
2023/05/20 11:42:00;;;;;;;7.30;5.80;;;;;;;;;;107587;285;40827;-44
2023/05/20 11:44:33;;;;;;;7.10;6.00;;;;;;;;;;107502;285;48705;-43
2023/05/20 11:47:06;;;;;;;7.90;5.90;;;;;;;;;;107595;284;42168;-43
2023/05/20 11:49:43;;;;;;;6.90;5.60;;;;;;;;;;107584;282;38849;-40
2023/05/20 11:52:16;;;;;;;7.10;5.70;;;;;;;;;;107593;285;40853;-41
2023/05/20 11:54:55;;;;;;;6.70;5.30;;;;;;;;;;107521;285;50349;-41
2023/05/20 11:57:30;;;;;;;6.20;5.20;;;;;;;;;;107561;282;42382;-40
2023/05/20 12:00:06;;;;;;;7.30;4.90;;;;;;;;;;107571;282;38788;-40
2023/05/20 12:02:40;;;;;;;6.30;5.40;;;;;;;;;;107576;285;39633;-39
2023/05/20 12:05:14;;;;;;;6.20;5.40;;;;;;;;;;107604;285;44984;-40
2023/05/20 12:07:48;;;;;;;7.20;5.60;;;;;;;;;;107577;285;42181;-40
2023/05/20 12:10:22;;;;;;;7.10;5.70;;;;;;;;;;107565;277;38995;-39
2023/05/20 12:12:55;;;;;;;7.40;5.90;;;;;;;;;;107528;285;39961;-41
2023/05/20 12:15:29;;;;;;;7.80;5.90;;;;;;;;;;107587;285;49102;-40
2023/05/20 12:18:02;;;;;;;7.50;6.10;;;;;;;;;;107591;285;43623;-43
2023/05/20 12:20:36;;;;;;;7.10;6.20;;;;;;;;;;107582;277;38564;-42
2023/05/20 12:23:11;;;;;;;7.30;6.20;;;;;;;;;;107437;282;39717;-43
2023/05/20 12:25:46;;;;;;;7.90;6.10;;;;;;;;;;107528;285;50191;-42
2023/05/20 12:28:19;;;;;;;7.50;6.20;;;;;;;;;;107545;284;43222;-41
2023/05/20 12:30:53;;;;;;;8.20;6.50;;;;;;;;;;107589;286;38860;-41
2023/05/20 12:33:26;;;;;;;7.50;6.60;;;;;;;;;;107559;277;39623;-44
2023/05/20 12:35:59;;;;;;;9.40;6.50;;;;;;;;;;107618;282;50052;-40
2023/05/20 12:38:33;;;;;;;7.60;6.10;;;;;;;;;;107547;285;42295;-42
2023/05/20 12:41:06;;;;;;;8.00;6.20;;;;;;;;;;107580;277;38794;-42
2023/05/20 12:43:40;;;;;;;7.00;6.30;;;;;;;;;;107526;285;40861;-42
2023/05/20 12:46:13;;;;;;;8.00;6.70;;;;;;;;;;107552;285;50545;-41
2023/05/20 12:48:46;;;;;;;7.60;6.30;;;;;;;;;;107546;284;42166;-42
2023/05/20 12:51:20;;;;;;;8.60;6.40;;;;;;;;;;107554;282;38795;-42
2023/05/20 12:53:53;;;;;;;7.10;6.30;;;;;;;;;;107505;284;39763;-42
2023/05/20 12:56:27;;;;;;;7.20;6.50;;;;;;;;;;107538;285;50078;-42
2023/05/20 12:59:00;;;;;;;7.10;6.40;;;;;;;;;;107545;282;42109;-42
2023/05/20 13:01:34;;;;;;;7.40;6.60;;;;;;;;;;107495;284;40003;-42
2023/05/20 13:04:08;;;;;;;7.20;6.50;;;;;;;;;;107573;277;39447;-42
2023/05/20 13:06:43;;;;;;;7.60;6.70;;;;;;;;;;107563;283;51445;-43
2023/05/20 13:09:16;;;;;;;7.80;7.00;;;;;;;;;;107542;285;43262;-42
2023/05/20 13:11:50;;;;;;;8.10;6.80;;;;;;;;;;107527;282;40115;-42
2023/05/20 13:14:23;;;;;;;7.80;7.00;;;;;;;;;;107537;285;40934;-43
2023/05/20 13:16:56;;;;;;;8.00;6.90;;;;;;;;;;107569;282;50247;-38
2023/05/20 13:19:32;;;;;;;8.00;7.20;;;;;;;;;;107552;285;42154;-38
2023/05/20 13:22:07;;;;;;;7.70;6.90;;;;;;;;;;107581;284;38952;-38
2023/05/20 13:24:41;;;;;;;7.90;7.10;;;;;;;;;;107548;282;39826;-38
2023/05/20 13:27:15;;;;;;;9.00;7.50;;;;;;;;;;107592;284;50051;-42
2023/05/20 13:29:48;;;;;;;8.40;7.40;;;;;;;;;;107570;282;42270;-41
2023/05/20 13:32:22;;;;;;;8.90;7.50;;;;;;;;;;107597;285;38905;-42
2023/05/20 13:34:58;;;;;;;8.80;7.20;;;;;;;;;;107462;282;175534;-43
2023/05/20 13:37:31;;;;;;;8.30;7.20;;;;;;;;;;107539;285;51490;-39
2023/05/20 13:40:07;;;;;;;8.80;7.30;;;;;;;;;;107459;284;175538;-38
2023/05/20 13:42:41;;;;;;;7.90;7.10;;;;;;;;;;107560;284;39795;-38
2023/05/20 13:45:17;;;;;;;7.90;7.10;;;;;;;;;;107512;282;39689;-38
2023/05/20 13:47:51;;;;;;;8.30;7.40;;;;;;;;;;107554;277;50186;-42
2023/05/20 13:50:25;;;;;;;8.30;7.40;;;;;;;;;;107581;284;42076;-42
2023/05/20 13:52:58;;;;;;;8.30;7.50;;;;;;;;;;107578;282;39693;-42
2023/05/20 13:55:31;;;;;;;8.00;7.20;;;;;;;;;;107511;285;39763;-42
2023/05/20 13:58:07;;;;;;;7.90;7.00;;;;;;;;;;107544;282;48780;-41
2023/05/20 14:00:41;;;;;;;8.10;7.10;;;;;;;;;;107568;282;42086;-43
2023/05/20 14:03:14;;;;;;;7.90;7.10;;;;;;;;;;107551;282;39022;-39
2023/05/20 14:05:48;;;;;;;8.50;7.30;;;;;;;;;;107530;284;39775;-38
2023/05/20 14:08:21;;;;;;;8.20;7.20;;;;;;;;;;107312;284;175576;-38
2023/05/20 14:10:55;;;;;;;7.60;6.80;;;;;;;;;;107529;277;43301;-42
2023/05/20 14:13:28;;;;;;;7.70;6.90;;;;;;;;;;107546;282;38827;-42
2023/05/20 14:16:05;;;;;;;7.60;6.80;;;;;;;;;;107531;282;39773;-40
2023/05/20 14:18:40;;;;;;;7.40;6.70;;;;;;;;;;107589;284;49259;-42
2023/05/20 14:21:15;;;;;;;7.20;6.50;;;;;;;;;;107554;284;42182;-42
2023/05/20 14:23:52;;;;;;;7.40;6.60;;;;;;;;;;107547;277;38732;-42
2023/05/20 14:26:27;;;;;;;6.90;6.20;;;;;;;;;;107546;284;39704;-42
2023/05/20 14:29:04;;;;;;;7.00;6.00;;;;;;;;;;107593;285;50056;-41
2023/05/20 14:31:42;;;;;;;6.80;6.10;;;;;;;;;;107594;285;42253;-43
2023/05/20 14:34:16;;;;;;;6.90;6.20;;;;;;;;;;107425;285;175604;-42
2023/05/20 14:36:50;;;;;;;7.10;6.30;;;;;;;;;;106969;285;892517;-42
2023/05/20 14:39:24;;;;;;;7.10;6.10;;;;;;;;;;107511;284;49897;-43
2023/05/20 14:42:03;;;;;;;7.00;6.00;;;;;;;;;;107564;282;42134;-40
2023/05/20 14:44:37;;;;;;;7.70;5.80;;;;;;;;;;107594;285;38543;-41
2023/05/20 14:47:10;;;;;;;6.60;5.50;;;;;;;;;;107516;282;39721;-42
2023/05/20 14:49:44;;;;;;;6.50;5.80;;;;;;;;;;107576;282;50047;-41
2023/05/20 14:52:19;;;;;;;6.50;5.70;;;;;;;;;;107586;286;42170;-39
2023/05/20 14:54:52;;;;;;;6.20;5.60;;;;;;;;;;107616;282;38789;-39
2023/05/20 14:57:27;;;;;;;5.90;5.30;;;;;;;;;;107474;285;175503;-39
2023/05/20 15:00:00;;;;;;;6.20;5.30;;;;;;;;;;107560;277;51405;-39
2023/05/20 15:02:36;;;;;;;5.80;5.20;;;;;;;;;;107607;282;43281;-39
2023/05/20 15:05:11;;;;;;;6.60;5.40;;;;;;;;;;107595;277;38814;-38
2023/05/20 15:07:45;;;;;;;5.70;4.90;;;;;;;;;;107569;285;40861;-39
2023/05/20 15:10:19;;;;;;;5.90;4.80;;;;;;;;;;107603;277;50250;-41
2023/05/20 15:12:53;;;;;;;5.60;4.80;;;;;;;;;;107405;282;175538;-42
2023/05/20 15:15:27;;;;;;;6.20;4.80;;;;;;;;;;107571;282;38956;-42
2023/05/20 15:18:04;;;;;;;5.50;4.80;;;;;;;;;;107522;282;39458;-42
2023/05/20 15:20:37;;;;;;;5.90;4.80;;;;;;;;;;107606;285;49102;-42
2023/05/20 15:23:11;;;;;;;5.50;4.60;;;;;;;;;;107550;277;42226;-43
2023/05/20 15:25:45;;;;;;;5.70;4.70;;;;;;;;;;107572;282;38766;-42
2023/05/20 15:28:20;;;;;;;6.40;4.60;;;;;;;;;;107590;282;39777;-42
2023/05/20 15:30:59;;;;;;;6.40;4.70;;;;;;;;;;107583;277;49999;-42